sensor_id;sensor_type;location;lat;lon;timestamp;P1;durP1;ratioP1;P2;durP2;ratioP2
8702;SDS011;9002;42.708;23.186;2023-06-22T00:01:12;13.60;;;12.30;;
8702;SDS011;9002;42.708;23.186;2023-06-22T00:03:39;12.93;;;11.67;;
8702;SDS011;9002;42.708;23.186;2023-06-22T00:06:06;13.57;;;12.27;;
8702;SDS011;9002;42.708;23.186;2023-06-22T00:08:35;17.47;;;13.17;;
8702;SDS011;9002;42.708;23.186;2023-06-22T00:11:01;13.47;;;12.17;;
8702;SDS011;9002;42.708;23.186;2023-06-22T00:13:28;14.30;;;12.80;;
8702;SDS011;9002;42.708;23.186;2023-06-22T00:15:55;14.00;;;12.70;;
8702;SDS011;9002;42.708;23.186;2023-06-22T00:18:22;15.83;;;12.73;;
8702;SDS011;9002;42.708;23.186;2023-06-22T00:20:53;17.10;;;14.13;;
8702;SDS011;9002;42.708;23.186;2023-06-22T00:23:23;17.33;;;15.57;;
8702;SDS011;9002;42.708;23.186;2023-06-22T00:25:51;15.20;;;13.57;;
8702;SDS011;9002;42.708;23.186;2023-06-22T00:28:18;14.97;;;13.37;;
8702;SDS011;9002;42.708;23.186;2023-06-22T00:30:45;16.57;;;13.40;;
8702;SDS011;9002;42.708;23.186;2023-06-22T00:33:12;14.73;;;13.23;;
8702;SDS011;9002;42.708;23.186;2023-06-22T00:35:41;14.13;;;12.83;;
8702;SDS011;9002;42.708;23.186;2023-06-22T00:38:08;14.47;;;12.93;;
8702;SDS011;9002;42.708;23.186;2023-06-22T00:40:35;14.07;;;12.67;;
8702;SDS011;9002;42.708;23.186;2023-06-22T00:43:03;13.77;;;12.37;;
8702;SDS011;9002;42.708;23.186;2023-06-22T00:45:32;14.10;;;12.70;;
8702;SDS011;9002;42.708;23.186;2023-06-22T00:47:59;13.97;;;12.67;;
8702;SDS011;9002;42.708;23.186;2023-06-22T00:50:28;14.50;;;13.00;;
8702;SDS011;9002;42.708;23.186;2023-06-22T00:52:59;13.67;;;12.50;;
8702;SDS011;9002;42.708;23.186;2023-06-22T00:55:29;14.03;;;12.63;;
8702;SDS011;9002;42.708;23.186;2023-06-22T00:57:56;14.73;;;13.20;;
8702;SDS011;9002;42.708;23.186;2023-06-22T01:00:25;15.97;;;13.57;;
8702;SDS011;9002;42.708;23.186;2023-06-22T01:02:52;15.03;;;13.63;;
8702;SDS011;9002;42.708;23.186;2023-06-22T01:05:20;15.33;;;13.73;;
8702;SDS011;9002;42.708;23.186;2023-06-22T01:07:55;14.73;;;13.33;;
8702;SDS011;9002;42.708;23.186;2023-06-22T01:10:32;14.27;;;12.80;;
8702;SDS011;9002;42.708;23.186;2023-06-22T01:13:06;15.10;;;12.73;;
8702;SDS011;9002;42.708;23.186;2023-06-22T01:15:43;14.40;;;12.90;;
8702;SDS011;9002;42.708;23.186;2023-06-22T01:18:15;15.27;;;13.87;;
8702;SDS011;9002;42.708;23.186;2023-06-22T01:20:43;14.10;;;12.63;;
8702;SDS011;9002;42.708;23.186;2023-06-22T01:23:12;13.90;;;12.60;;
8702;SDS011;9002;42.708;23.186;2023-06-22T01:25:51;13.50;;;12.30;;
8702;SDS011;9002;42.708;23.186;2023-06-22T01:28:31;13.90;;;12.70;;
8702;SDS011;9002;42.708;23.186;2023-06-22T01:31:07;13.37;;;12.17;;
8702;SDS011;9002;42.708;23.186;2023-06-22T01:33:37;14.07;;;12.60;;
8702;SDS011;9002;42.708;23.186;2023-06-22T01:36:07;14.23;;;12.83;;
8702;SDS011;9002;42.708;23.186;2023-06-22T01:38:35;14.67;;;13.17;;
8702;SDS011;9002;42.708;23.186;2023-06-22T01:41:03;14.97;;;13.47;;
8702;SDS011;9002;42.708;23.186;2023-06-22T01:43:32;14.30;;;12.97;;
8702;SDS011;9002;42.708;23.186;2023-06-22T01:46:00;15.20;;;13.80;;
8702;SDS011;9002;42.708;23.186;2023-06-22T01:48:28;14.30;;;12.80;;
8702;SDS011;9002;42.708;23.186;2023-06-22T01:50:55;15.70;;;14.03;;
8702;SDS011;9002;42.708;23.186;2023-06-22T01:53:22;15.23;;;13.83;;
8702;SDS011;9002;42.708;23.186;2023-06-22T01:55:49;16.53;;;13.50;;
8702;SDS011;9002;42.708;23.186;2023-06-22T01:58:16;16.83;;;13.40;;
8702;SDS011;9002;42.708;23.186;2023-06-22T02:00:48;15.37;;;13.77;;
8702;SDS011;9002;42.708;23.186;2023-06-22T02:03:20;15.37;;;13.87;;
8702;SDS011;9002;42.708;23.186;2023-06-22T02:05:52;14.67;;;13.17;;
8702;SDS011;9002;42.708;23.186;2023-06-22T02:08:23;15.43;;;13.93;;
8702;SDS011;9002;42.708;23.186;2023-06-22T02:10:54;13.77;;;12.47;;
8702;SDS011;9002;42.708;23.186;2023-06-22T02:13:24;13.57;;;12.17;;
8702;SDS011;9002;42.708;23.186;2023-06-22T02:15:52;13.80;;;12.40;;
8702;SDS011;9002;42.708;23.186;2023-06-22T02:18:20;13.13;;;11.83;;
8702;SDS011;9002;42.708;23.186;2023-06-22T02:20:47;12.23;;;11.03;;
8702;SDS011;9002;42.708;23.186;2023-06-22T02:23:13;14.70;;;11.53;;
8702;SDS011;9002;42.708;23.186;2023-06-22T02:25:40;13.17;;;11.77;;
8702;SDS011;9002;42.708;23.186;2023-06-22T02:28:09;13.40;;;12.00;;
8702;SDS011;9002;42.708;23.186;2023-06-22T02:30:36;14.30;;;13.00;;
8702;SDS011;9002;42.708;23.186;2023-06-22T02:33:04;14.33;;;12.27;;
8702;SDS011;9002;42.708;23.186;2023-06-22T02:35:31;14.30;;;12.90;;
8702;SDS011;9002;42.708;23.186;2023-06-22T02:38:00;14.07;;;12.57;;
8702;SDS011;9002;42.708;23.186;2023-06-22T02:40:29;13.77;;;12.37;;
8702;SDS011;9002;42.708;23.186;2023-06-22T02:42:56;14.00;;;12.63;;
8702;SDS011;9002;42.708;23.186;2023-06-22T02:45:27;15.17;;;13.50;;
8702;SDS011;9002;42.708;23.186;2023-06-22T02:47:54;14.20;;;12.43;;
8702;SDS011;9002;42.708;23.186;2023-06-22T02:50:23;15.40;;;13.80;;
8702;SDS011;9002;42.708;23.186;2023-06-22T02:52:50;15.67;;;13.97;;
8702;SDS011;9002;42.708;23.186;2023-06-22T02:55:17;14.50;;;13.10;;
8702;SDS011;9002;42.708;23.186;2023-06-22T02:57:44;14.33;;;12.93;;
8702;SDS011;9002;42.708;23.186;2023-06-22T03:00:13;14.93;;;13.30;;
8702;SDS011;9002;42.708;23.186;2023-06-22T03:02:43;16.23;;;13.73;;
8702;SDS011;9002;42.708;23.186;2023-06-22T03:05:10;14.80;;;13.40;;
8702;SDS011;9002;42.708;23.186;2023-06-22T03:10:23;15.67;;;13.67;;
8702;SDS011;9002;42.708;23.186;2023-06-22T03:12:50;15.20;;;13.70;;
8702;SDS011;9002;42.708;23.186;2023-06-22T03:15:16;17.07;;;14.00;;
8702;SDS011;9002;42.708;23.186;2023-06-22T03:17:43;14.53;;;13.03;;
8702;SDS011;9002;42.708;23.186;2023-06-22T03:20:10;16.03;;;13.93;;
8702;SDS011;9002;42.708;23.186;2023-06-22T03:22:38;15.27;;;13.67;;
8702;SDS011;9002;42.708;23.186;2023-06-22T03:25:06;14.97;;;13.50;;
8702;SDS011;9002;42.708;23.186;2023-06-22T03:27:39;14.43;;;12.93;;
8702;SDS011;9002;42.708;23.186;2023-06-22T03:30:07;15.60;;;13.90;;
8702;SDS011;9002;42.708;23.186;2023-06-22T03:32:35;16.47;;;14.23;;
8702;SDS011;9002;42.708;23.186;2023-06-22T03:35:02;16.20;;;14.10;;
8702;SDS011;9002;42.708;23.186;2023-06-22T03:37:31;17.90;;;13.47;;
8702;SDS011;9002;42.708;23.186;2023-06-22T03:39:58;15.93;;;14.40;;
8702;SDS011;9002;42.708;23.186;2023-06-22T03:45:01;15.13;;;13.60;;
8702;SDS011;9002;42.708;23.186;2023-06-22T03:47:28;15.90;;;14.30;;
8702;SDS011;9002;42.708;23.186;2023-06-22T03:49:55;16.37;;;14.70;;
8702;SDS011;9002;42.708;23.186;2023-06-22T03:52:22;17.20;;;15.33;;
8702;SDS011;9002;42.708;23.186;2023-06-22T03:54:50;15.47;;;14.03;;
8702;SDS011;9002;42.708;23.186;2023-06-22T03:57:17;16.10;;;14.33;;
8702;SDS011;9002;42.708;23.186;2023-06-22T03:59:44;17.80;;;13.80;;
8702;SDS011;9002;42.708;23.186;2023-06-22T04:02:12;15.67;;;14.20;;
8702;SDS011;9002;42.708;23.186;2023-06-22T04:04:39;15.37;;;13.87;;
8702;SDS011;9002;42.708;23.186;2023-06-22T04:07:06;16.47;;;13.97;;
8702;SDS011;9002;42.708;23.186;2023-06-22T04:09:33;14.73;;;13.13;;
8702;SDS011;9002;42.708;23.186;2023-06-22T04:12:01;18.43;;;14.90;;
8702;SDS011;9002;42.708;23.186;2023-06-22T04:14:28;15.70;;;14.23;;
8702;SDS011;9002;42.708;23.186;2023-06-22T04:19:31;15.47;;;13.20;;
8702;SDS011;9002;42.708;23.186;2023-06-22T04:21:58;16.50;;;14.77;;
8702;SDS011;9002;42.708;23.186;2023-06-22T04:24:25;16.33;;;14.37;;
8702;SDS011;9002;42.708;23.186;2023-06-22T04:26:52;15.30;;;13.70;;
8702;SDS011;9002;42.708;23.186;2023-06-22T04:29:19;14.77;;;13.37;;
8702;SDS011;9002;42.708;23.186;2023-06-22T04:31:55;17.73;;;14.33;;
8702;SDS011;9002;42.708;23.186;2023-06-22T04:34:23;16.43;;;14.73;;
8702;SDS011;9002;42.708;23.186;2023-06-22T04:36:53;16.57;;;14.50;;
8702;SDS011;9002;42.708;23.186;2023-06-22T04:39:20;15.83;;;14.13;;
8702;SDS011;9002;42.708;23.186;2023-06-22T04:41:48;15.80;;;14.33;;
8702;SDS011;9002;42.708;23.186;2023-06-22T04:44:16;16.67;;;14.97;;
8702;SDS011;9002;42.708;23.186;2023-06-22T04:46:49;19.43;;;17.17;;
8702;SDS011;9002;42.708;23.186;2023-06-22T04:49:19;18.13;;;16.33;;
8702;SDS011;9002;42.708;23.186;2023-06-22T04:51:47;18.17;;;14.10;;
8702;SDS011;9002;42.708;23.186;2023-06-22T04:54:15;16.23;;;14.63;;
8702;SDS011;9002;42.708;23.186;2023-06-22T04:56:42;16.83;;;15.23;;
8702;SDS011;9002;42.708;23.186;2023-06-22T04:59:11;16.73;;;14.97;;
8702;SDS011;9002;42.708;23.186;2023-06-22T05:01:38;16.30;;;14.70;;
8702;SDS011;9002;42.708;23.186;2023-06-22T05:04:05;15.37;;;13.90;;
8702;SDS011;9002;42.708;23.186;2023-06-22T05:06:32;15.70;;;13.17;;
8702;SDS011;9002;42.708;23.186;2023-06-22T05:08:59;16.30;;;13.70;;
8702;SDS011;9002;42.708;23.186;2023-06-22T05:11:29;15.57;;;13.77;;
8702;SDS011;9002;42.708;23.186;2023-06-22T05:13:56;14.23;;;13.03;;
8702;SDS011;9002;42.708;23.186;2023-06-22T05:16:23;14.83;;;13.33;;
8702;SDS011;9002;42.708;23.186;2023-06-22T05:18:54;15.50;;;13.27;;
8702;SDS011;9002;42.708;23.186;2023-06-22T05:21:21;16.00;;;14.40;;
8702;SDS011;9002;42.708;23.186;2023-06-22T05:23:49;15.93;;;13.70;;
8702;SDS011;9002;42.708;23.186;2023-06-22T05:26:17;16.47;;;14.83;;
8702;SDS011;9002;42.708;23.186;2023-06-22T05:28:46;16.73;;;14.70;;
8702;SDS011;9002;42.708;23.186;2023-06-22T05:31:13;18.03;;;15.20;;
8702;SDS011;9002;42.708;23.186;2023-06-22T05:33:40;16.97;;;15.27;;
8702;SDS011;9002;42.708;23.186;2023-06-22T05:36:08;19.23;;;15.53;;
8702;SDS011;9002;42.708;23.186;2023-06-22T05:38:35;18.67;;;16.77;;
8702;SDS011;9002;42.708;23.186;2023-06-22T05:41:02;18.57;;;16.50;;
8702;SDS011;9002;42.708;23.186;2023-06-22T05:43:29;18.13;;;16.33;;
8702;SDS011;9002;42.708;23.186;2023-06-22T05:45:57;19.10;;;17.40;;
8702;SDS011;9002;42.708;23.186;2023-06-22T05:48:24;17.63;;;16.03;;
8702;SDS011;9002;42.708;23.186;2023-06-22T05:50:51;18.33;;;16.50;;
8702;SDS011;9002;42.708;23.186;2023-06-22T05:53:18;19.70;;;17.17;;
8702;SDS011;9002;42.708;23.186;2023-06-22T05:55:45;17.17;;;15.57;;
8702;SDS011;9002;42.708;23.186;2023-06-22T05:58:12;17.87;;;16.17;;
8702;SDS011;9002;42.708;23.186;2023-06-22T06:03:24;18.30;;;16.50;;
8702;SDS011;9002;42.708;23.186;2023-06-22T06:05:53;18.27;;;16.43;;
8702;SDS011;9002;42.708;23.186;2023-06-22T06:08:20;17.57;;;15.70;;
8702;SDS011;9002;42.708;23.186;2023-06-22T06:10:47;18.60;;;16.63;;
8702;SDS011;9002;42.708;23.186;2023-06-22T06:13:15;17.90;;;16.17;;
8702;SDS011;9002;42.708;23.186;2023-06-22T06:15:41;18.10;;;16.43;;
8702;SDS011;9002;42.708;23.186;2023-06-22T06:18:08;19.03;;;17.13;;
8702;SDS011;9002;42.708;23.186;2023-06-22T06:20:36;18.27;;;16.33;;
8702;SDS011;9002;42.708;23.186;2023-06-22T06:23:03;18.70;;;16.90;;
8702;SDS011;9002;42.708;23.186;2023-06-22T06:25:30;19.63;;;17.50;;
8702;SDS011;9002;42.708;23.186;2023-06-22T06:27:57;19.17;;;17.27;;
8702;SDS011;9002;42.708;23.186;2023-06-22T06:30:24;19.80;;;17.73;;
8702;SDS011;9002;42.708;23.186;2023-06-22T06:32:51;19.30;;;17.00;;
8702;SDS011;9002;42.708;23.186;2023-06-22T06:37:56;19.40;;;17.43;;
8702;SDS011;9002;42.708;23.186;2023-06-22T06:40:23;20.73;;;18.73;;
8702;SDS011;9002;42.708;23.186;2023-06-22T06:42:49;21.03;;;17.80;;
8702;SDS011;9002;42.708;23.186;2023-06-22T06:45:17;18.73;;;16.93;;
8702;SDS011;9002;42.708;23.186;2023-06-22T06:47:45;17.97;;;16.20;;
8702;SDS011;9002;42.708;23.186;2023-06-22T06:50:12;18.43;;;16.60;;
8702;SDS011;9002;42.708;23.186;2023-06-22T06:52:39;18.33;;;16.53;;
8702;SDS011;9002;42.708;23.186;2023-06-22T06:55:08;18.87;;;15.80;;
8702;SDS011;9002;42.708;23.186;2023-06-22T06:57:37;17.17;;;15.33;;
8702;SDS011;9002;42.708;23.186;2023-06-22T07:00:04;17.60;;;15.90;;
8702;SDS011;9002;42.708;23.186;2023-06-22T07:02:37;18.03;;;15.60;;
8702;SDS011;9002;42.708;23.186;2023-06-22T07:05:05;17.67;;;15.87;;
8702;SDS011;9002;42.708;23.186;2023-06-22T07:07:33;17.20;;;15.27;;
8702;SDS011;9002;42.708;23.186;2023-06-22T07:10:00;17.93;;;16.13;;
8702;SDS011;9002;42.708;23.186;2023-06-22T07:12:30;17.70;;;16.03;;
8702;SDS011;9002;42.708;23.186;2023-06-22T07:15:00;17.03;;;15.43;;
8702;SDS011;9002;42.708;23.186;2023-06-22T07:17:28;16.83;;;15.17;;
8702;SDS011;9002;42.708;23.186;2023-06-22T07:19:55;15.83;;;14.37;;
8702;SDS011;9002;42.708;23.186;2023-06-22T07:22:21;16.90;;;15.40;;
8702;SDS011;9002;42.708;23.186;2023-06-22T07:24:48;16.03;;;14.40;;
8702;SDS011;9002;42.708;23.186;2023-06-22T07:27:15;17.47;;;15.50;;
8702;SDS011;9002;42.708;23.186;2023-06-22T07:29:45;16.00;;;14.40;;
8702;SDS011;9002;42.708;23.186;2023-06-22T07:32:12;16.43;;;14.93;;
8702;SDS011;9002;42.708;23.186;2023-06-22T07:34:39;16.77;;;15.13;;
8702;SDS011;9002;42.708;23.186;2023-06-22T07:37:06;16.33;;;14.50;;
8702;SDS011;9002;42.708;23.186;2023-06-22T07:42:02;17.27;;;15.47;;
8702;SDS011;9002;42.708;23.186;2023-06-22T07:44:29;15.60;;;14.20;;
8702;SDS011;9002;42.708;23.186;2023-06-22T07:46:57;15.10;;;13.67;;
8702;SDS011;9002;42.708;23.186;2023-06-22T07:49:24;14.03;;;12.73;;
8702;SDS011;9002;42.708;23.186;2023-06-22T07:51:51;16.07;;;14.40;;
8702;SDS011;9002;42.708;23.186;2023-06-22T07:54:18;15.03;;;13.53;;
8702;SDS011;9002;42.708;23.186;2023-06-22T07:56:46;16.43;;;14.87;;
8702;SDS011;9002;42.708;23.186;2023-06-22T07:59:12;17.27;;;14.07;;
8702;SDS011;9002;42.708;23.186;2023-06-22T08:01:39;17.57;;;15.47;;
8702;SDS011;9002;42.708;23.186;2023-06-22T08:04:07;17.97;;;15.83;;
8702;SDS011;9002;42.708;23.186;2023-06-22T08:06:34;16.57;;;14.93;;
8702;SDS011;9002;42.708;23.186;2023-06-22T08:09:01;16.93;;;13.93;;
8702;SDS011;9002;42.708;23.186;2023-06-22T08:11:28;16.77;;;15.17;;
8702;SDS011;9002;42.708;23.186;2023-06-22T08:13:55;17.03;;;15.23;;
8702;SDS011;9002;42.708;23.186;2023-06-22T08:16:23;19.33;;;15.63;;
8702;SDS011;9002;42.708;23.186;2023-06-22T08:18:50;17.30;;;15.60;;
8702;SDS011;9002;42.708;23.186;2023-06-22T08:21:18;17.00;;;15.27;;
8702;SDS011;9002;42.708;23.186;2023-06-22T08:23:45;13.80;;;12.50;;
8702;SDS011;9002;42.708;23.186;2023-06-22T08:26:12;13.00;;;11.70;;
8702;SDS011;9002;42.708;23.186;2023-06-22T08:28:39;14.63;;;13.27;;
8702;SDS011;9002;42.708;23.186;2023-06-22T08:31:06;14.53;;;13.03;;
8702;SDS011;9002;42.708;23.186;2023-06-22T08:33:33;16.07;;;14.60;;
8702;SDS011;9002;42.708;23.186;2023-06-22T08:36:00;14.07;;;12.80;;
8702;SDS011;9002;42.708;23.186;2023-06-22T08:38:28;16.43;;;13.47;;
8702;SDS011;9002;42.708;23.186;2023-06-22T08:40:55;15.73;;;13.83;;
8702;SDS011;9002;42.708;23.186;2023-06-22T08:43:22;15.67;;;13.43;;
8702;SDS011;9002;42.708;23.186;2023-06-22T08:45:49;14.93;;;13.43;;
8702;SDS011;9002;42.708;23.186;2023-06-22T08:48:15;12.80;;;10.73;;
8702;SDS011;9002;42.708;23.186;2023-06-22T08:50:42;12.97;;;11.70;;
8702;SDS011;9002;42.708;23.186;2023-06-22T08:53:09;13.47;;;12.17;;
8702;SDS011;9002;42.708;23.186;2023-06-22T08:55:37;12.53;;;11.30;;
8702;SDS011;9002;42.708;23.186;2023-06-22T08:58:04;13.30;;;11.90;;
8702;SDS011;9002;42.708;23.186;2023-06-22T09:00:31;13.47;;;12.27;;
8702;SDS011;9002;42.708;23.186;2023-06-22T09:03:00;14.00;;;12.40;;
8702;SDS011;9002;42.708;23.186;2023-06-22T09:05:27;13.47;;;12.23;;
8702;SDS011;9002;42.708;23.186;2023-06-22T09:07:54;13.40;;;12.23;;
8702;SDS011;9002;42.708;23.186;2023-06-22T09:10:23;12.20;;;11.20;;
8702;SDS011;9002;42.708;23.186;2023-06-22T09:12:52;13.27;;;11.30;;
8702;SDS011;9002;42.708;23.186;2023-06-22T09:15:19;11.20;;;10.20;;
8702;SDS011;9002;42.708;23.186;2023-06-22T09:17:46;11.10;;;10.20;;
8702;SDS011;9002;42.708;23.186;2023-06-22T09:20:12;11.80;;;10.70;;
8702;SDS011;9002;42.708;23.186;2023-06-22T09:22:40;12.23;;;11.13;;
8702;SDS011;9002;42.708;23.186;2023-06-22T09:25:08;12.33;;;11.23;;
8702;SDS011;9002;42.708;23.186;2023-06-22T09:27:35;11.87;;;10.87;;
8702;SDS011;9002;42.708;23.186;2023-06-22T09:30:03;11.73;;;10.70;;
8702;SDS011;9002;42.708;23.186;2023-06-22T09:32:31;11.53;;;10.63;;
8702;SDS011;9002;42.708;23.186;2023-06-22T09:34:58;14.27;;;10.60;;
8702;SDS011;9002;42.708;23.186;2023-06-22T09:37:25;11.77;;;10.83;;
8702;SDS011;9002;42.708;23.186;2023-06-22T09:39:52;12.90;;;11.70;;
8702;SDS011;9002;42.708;23.186;2023-06-22T09:42:18;13.47;;;12.37;;
8702;SDS011;9002;42.708;23.186;2023-06-22T09:44:46;12.07;;;10.97;;
8702;SDS011;9002;42.708;23.186;2023-06-22T09:47:14;13.33;;;12.23;;
8702;SDS011;9002;42.708;23.186;2023-06-22T09:49:41;13.77;;;12.40;;
8702;SDS011;9002;42.708;23.186;2023-06-22T09:52:07;12.27;;;11.10;;
8702;SDS011;9002;42.708;23.186;2023-06-22T09:54:36;11.80;;;10.87;;
8702;SDS011;9002;42.708;23.186;2023-06-22T09:57:03;11.83;;;10.77;;
8702;SDS011;9002;42.708;23.186;2023-06-22T09:59:30;12.63;;;11.43;;
8702;SDS011;9002;42.708;23.186;2023-06-22T10:01:57;12.80;;;11.67;;
8702;SDS011;9002;42.708;23.186;2023-06-22T10:04:25;12.57;;;11.50;;
8702;SDS011;9002;42.708;23.186;2023-06-22T10:06:52;12.20;;;11.00;;
8702;SDS011;9002;42.708;23.186;2023-06-22T10:09:19;12.53;;;10.67;;
8702;SDS011;9002;42.708;23.186;2023-06-22T10:11:46;12.37;;;11.10;;
8702;SDS011;9002;42.708;23.186;2023-06-22T10:14:13;13.13;;;11.93;;
8702;SDS011;9002;42.708;23.186;2023-06-22T10:16:40;12.40;;;11.27;;
8702;SDS011;9002;42.708;23.186;2023-06-22T10:19:07;13.03;;;11.83;;
8702;SDS011;9002;42.708;23.186;2023-06-22T10:21:35;12.10;;;11.00;;
8702;SDS011;9002;42.708;23.186;2023-06-22T10:24:02;12.97;;;11.77;;
8702;SDS011;9002;42.708;23.186;2023-06-22T10:26:32;12.73;;;11.53;;
8702;SDS011;9002;42.708;23.186;2023-06-22T10:28:59;11.30;;;10.40;;
8702;SDS011;9002;42.708;23.186;2023-06-22T10:31:25;12.20;;;11.10;;
8702;SDS011;9002;42.708;23.186;2023-06-22T10:33:52;13.03;;;11.80;;
8702;SDS011;9002;42.708;23.186;2023-06-22T10:36:20;12.93;;;11.83;;
8702;SDS011;9002;42.708;23.186;2023-06-22T10:38:48;13.27;;;12.10;;
8702;SDS011;9002;42.708;23.186;2023-06-22T10:41:15;12.47;;;11.30;;
8702;SDS011;9002;42.708;23.186;2023-06-22T10:43:42;12.80;;;11.57;;
8702;SDS011;9002;42.708;23.186;2023-06-22T10:48:49;12.70;;;11.60;;
8702;SDS011;9002;42.708;23.186;2023-06-22T10:51:16;13.90;;;12.70;;
8702;SDS011;9002;42.708;23.186;2023-06-22T10:53:43;13.47;;;12.37;;
8702;SDS011;9002;42.708;23.186;2023-06-22T10:56:11;13.30;;;12.20;;
8702;SDS011;9002;42.708;23.186;2023-06-22T10:58:38;12.63;;;11.53;;
8702;SDS011;9002;42.708;23.186;2023-06-22T11:01:05;13.20;;;12.10;;
8702;SDS011;9002;42.708;23.186;2023-06-22T11:03:32;11.40;;;10.50;;
8702;SDS011;9002;42.708;23.186;2023-06-22T11:05:59;13.70;;;12.07;;
8702;SDS011;9002;42.708;23.186;2023-06-22T11:08:25;12.60;;;11.53;;
8702;SDS011;9002;42.708;23.186;2023-06-22T11:10:52;12.03;;;11.03;;
8702;SDS011;9002;42.708;23.186;2023-06-22T11:13:21;13.07;;;11.97;;
8702;SDS011;9002;42.708;23.186;2023-06-22T11:15:47;12.87;;;11.57;;
8702;SDS011;9002;42.708;23.186;2023-06-22T11:18:14;12.83;;;11.73;;
8702;SDS011;9002;42.708;23.186;2023-06-22T11:23:21;12.30;;;11.20;;
8702;SDS011;9002;42.708;23.186;2023-06-22T11:25:48;13.30;;;12.30;;
8702;SDS011;9002;42.708;23.186;2023-06-22T11:28:15;10.70;;;9.80;;
8702;SDS011;9002;42.708;23.186;2023-06-22T11:30:43;10.60;;;9.67;;
8702;SDS011;9002;42.708;23.186;2023-06-22T11:33:10;11.13;;;10.13;;
8702;SDS011;9002;42.708;23.186;2023-06-22T11:35:37;16.20;;;14.70;;
8702;SDS011;9002;42.708;23.186;2023-06-22T11:38:03;13.67;;;12.33;;
8702;SDS011;9002;42.708;23.186;2023-06-22T11:40:30;13.07;;;11.93;;
8702;SDS011;9002;42.708;23.186;2023-06-22T11:42:57;12.33;;;11.27;;
8702;SDS011;9002;42.708;23.186;2023-06-22T11:45:24;12.07;;;11.07;;
8702;SDS011;9002;42.708;23.186;2023-06-22T11:47:52;12.83;;;11.77;;
8702;SDS011;9002;42.708;23.186;2023-06-22T11:50:19;11.73;;;10.73;;
8702;SDS011;9002;42.708;23.186;2023-06-22T11:52:46;12.63;;;11.50;;
8702;SDS011;9002;42.708;23.186;2023-06-22T11:55:13;11.90;;;10.70;;
8702;SDS011;9002;42.708;23.186;2023-06-22T11:57:52;12.40;;;11.30;;
8702;SDS011;9002;42.708;23.186;2023-06-22T12:00:19;12.93;;;11.83;;
8702;SDS011;9002;42.708;23.186;2023-06-22T12:02:48;12.67;;;10.63;;
8702;SDS011;9002;42.708;23.186;2023-06-22T12:05:17;13.07;;;11.80;;
8702;SDS011;9002;42.708;23.186;2023-06-22T12:07:45;12.57;;;11.37;;
8702;SDS011;9002;42.708;23.186;2023-06-22T12:10:12;12.57;;;11.47;;
8702;SDS011;9002;42.708;23.186;2023-06-22T12:12:39;11.47;;;10.37;;
8702;SDS011;9002;42.708;23.186;2023-06-22T12:15:07;11.70;;;10.50;;
8702;SDS011;9002;42.708;23.186;2023-06-22T12:17:35;11.20;;;10.20;;
8702;SDS011;9002;42.708;23.186;2023-06-22T12:20:02;12.33;;;11.00;;
8702;SDS011;9002;42.708;23.186;2023-06-22T12:22:32;12.70;;;11.40;;
8702;SDS011;9002;42.708;23.186;2023-06-22T12:24:59;13.53;;;12.43;;
8702;SDS011;9002;42.708;23.186;2023-06-22T12:27:25;13.27;;;12.07;;
8702;SDS011;9002;42.708;23.186;2023-06-22T12:29:52;13.53;;;12.13;;
8702;SDS011;9002;42.708;23.186;2023-06-22T12:32:19;12.87;;;11.67;;
8702;SDS011;9002;42.708;23.186;2023-06-22T12:34:46;13.47;;;12.17;;
8702;SDS011;9002;42.708;23.186;2023-06-22T12:37:13;12.17;;;11.07;;
8702;SDS011;9002;42.708;23.186;2023-06-22T12:39:41;13.00;;;11.37;;
8702;SDS011;9002;42.708;23.186;2023-06-22T12:42:08;14.97;;;10.97;;
8702;SDS011;9002;42.708;23.186;2023-06-22T12:44:37;18.37;;;11.70;;
8702;SDS011;9002;42.708;23.186;2023-06-22T12:47:04;14.33;;;11.60;;
8702;SDS011;9002;42.708;23.186;2023-06-22T12:49:32;15.33;;;10.70;;
8702;SDS011;9002;42.708;23.186;2023-06-22T12:51:58;12.50;;;9.30;;
8702;SDS011;9002;42.708;23.186;2023-06-22T12:56:55;13.73;;;10.07;;
8702;SDS011;9002;42.708;23.186;2023-06-22T12:59:22;11.43;;;9.30;;
8702;SDS011;9002;42.708;23.186;2023-06-22T13:01:49;13.03;;;9.37;;
8702;SDS011;9002;42.708;23.186;2023-06-22T13:04:16;11.07;;;9.67;;
8702;SDS011;9002;42.708;23.186;2023-06-22T13:06:44;11.50;;;10.13;;
8702;SDS011;9002;42.708;23.186;2023-06-22T13:09:12;11.63;;;9.47;;
8702;SDS011;9002;42.708;23.186;2023-06-22T13:11:39;11.80;;;9.33;;
8702;SDS011;9002;42.708;23.186;2023-06-22T13:14:08;9.53;;;8.13;;
8702;SDS011;9002;42.708;23.186;2023-06-22T13:16:35;10.03;;;9.03;;
8702;SDS011;9002;42.708;23.186;2023-06-22T13:19:02;11.73;;;10.30;;
8702;SDS011;9002;42.708;23.186;2023-06-22T13:21:30;12.40;;;10.93;;
8702;SDS011;9002;42.708;23.186;2023-06-22T13:23:57;12.63;;;11.00;;
8702;SDS011;9002;42.708;23.186;2023-06-22T13:26:24;12.23;;;11.03;;
8702;SDS011;9002;42.708;23.186;2023-06-22T13:31:28;12.33;;;11.13;;
8702;SDS011;9002;42.708;23.186;2023-06-22T13:33:54;12.23;;;11.20;;
8702;SDS011;9002;42.708;23.186;2023-06-22T13:36:21;13.30;;;10.63;;
8702;SDS011;9002;42.708;23.186;2023-06-22T13:38:49;13.67;;;11.07;;
8702;SDS011;9002;42.708;23.186;2023-06-22T13:41:15;12.70;;;11.40;;
8702;SDS011;9002;42.708;23.186;2023-06-22T13:43:42;12.70;;;11.47;;
8702;SDS011;9002;42.708;23.186;2023-06-22T13:46:09;13.10;;;11.73;;
8702;SDS011;9002;42.708;23.186;2023-06-22T13:48:37;12.47;;;11.20;;
8702;SDS011;9002;42.708;23.186;2023-06-22T13:51:04;12.80;;;11.60;;
8702;SDS011;9002;42.708;23.186;2023-06-22T13:53:31;12.93;;;11.70;;
8702;SDS011;9002;42.708;23.186;2023-06-22T13:55:58;12.83;;;11.63;;
8702;SDS011;9002;42.708;23.186;2023-06-22T13:58:24;13.10;;;11.87;;
8702;SDS011;9002;42.708;23.186;2023-06-22T14:00:51;12.60;;;11.37;;
8702;SDS011;9002;42.708;23.186;2023-06-22T14:05:56;15.17;;;13.77;;
8702;SDS011;9002;42.708;23.186;2023-06-22T14:08:23;15.37;;;13.67;;
8702;SDS011;9002;42.708;23.186;2023-06-22T14:10:50;16.07;;;13.17;;
8702;SDS011;9002;42.708;23.186;2023-06-22T14:13:18;14.37;;;11.17;;
8702;SDS011;9002;42.708;23.186;2023-06-22T14:15:45;13.03;;;11.37;;
8702;SDS011;9002;42.708;23.186;2023-06-22T14:18:13;17.73;;;11.17;;
8702;SDS011;9002;42.708;23.186;2023-06-22T14:20:40;11.13;;;9.90;;
8702;SDS011;9002;42.708;23.186;2023-06-22T14:23:09;12.20;;;11.10;;
8702;SDS011;9002;42.708;23.186;2023-06-22T14:25:35;11.80;;;10.60;;
8702;SDS011;9002;42.708;23.186;2023-06-22T14:28:02;11.30;;;10.30;;
8702;SDS011;9002;42.708;23.186;2023-06-22T14:30:29;12.03;;;9.77;;
8702;SDS011;9002;42.708;23.186;2023-06-22T14:32:56;11.57;;;10.47;;
8702;SDS011;9002;42.708;23.186;2023-06-22T14:35:23;14.90;;;11.47;;
8702;SDS011;9002;42.708;23.186;2023-06-22T14:40:29;15.33;;;11.70;;
8702;SDS011;9002;42.708;23.186;2023-06-22T14:42:56;12.83;;;11.53;;
8702;SDS011;9002;42.708;23.186;2023-06-22T14:45:22;14.80;;;11.27;;
8702;SDS011;9002;42.708;23.186;2023-06-22T14:47:49;12.07;;;10.53;;
8702;SDS011;9002;42.708;23.186;2023-06-22T14:50:16;12.93;;;11.53;;
8702;SDS011;9002;42.708;23.186;2023-06-22T14:52:43;16.40;;;12.33;;
8702;SDS011;9002;42.708;23.186;2023-06-22T14:55:10;19.07;;;14.70;;
8702;SDS011;9002;42.708;23.186;2023-06-22T14:57:38;12.97;;;11.67;;
8702;SDS011;9002;42.708;23.186;2023-06-22T15:00:06;15.63;;;13.57;;
8702;SDS011;9002;42.708;23.186;2023-06-22T15:02:33;14.47;;;12.40;;
8702;SDS011;9002;42.708;23.186;2023-06-22T15:05:00;14.57;;;12.87;;
8702;SDS011;9002;42.708;23.186;2023-06-22T15:07:27;14.13;;;12.63;;
8702;SDS011;9002;42.708;23.186;2023-06-22T15:09:54;14.63;;;13.07;;